Back to Top

Language: 

My Weather Underground Personal Weather Station Historical Data with Graphs...

Delerius Weather Station Historical Data
Daily Summary for April 1, 2017 Units:  English    Metric   Both
« Previous Day
Next Day »
Daily Weekly Monthly Yearly Custom
  High: Low: Average:
Temperature: 59.5 °F 45.5 °F 50.9 °F
Dew Point: 49.0 °F 42.9 °F 45.5 °F
Humidity: 94 % 66 % 82 %
Wind Speed: 13.0 mph 0.0 mph 5.2 mph
Wind Gust: 22.0 mph - -
Wind:- - SW
Pressure: 29.94 in 29.67 in -
Precipitation: 0.01 in    
Historical Graphs
 
 
Tabular Data for April 1, 2017
Time Temperature Dew Point Pressure Wind Wind Speed Wind Gust Humidity Rainfall Rate (Hourly) solar Conditions
00:04 52.3 °F 46.7 °F 29.71 in South 4.0 mph 14.0 mph 81 % 0.00 in 0 W/m2
00:09 52.3 °F 46.7 °F 29.70 in South 6.0 mph 18.0 mph 81 % 0.00 in 0 W/m2
00:14 52.3 °F 46.7 °F 29.70 in South 7.0 mph 18.0 mph 81 % 0.00 in 0 W/m2
00:19 52.2 °F 46.5 °F 29.70 in South 6.0 mph 16.0 mph 81 % 0.00 in 0 W/m2
00:24 52.2 °F 46.5 °F 29.70 in SSW 8.0 mph 15.0 mph 81 % 0.00 in 0 W/m2
00:29 52.0 °F 46.3 °F 29.70 in SSW 8.0 mph 15.0 mph 81 % 0.00 in 0 W/m2
00:34 52.0 °F 46.3 °F 29.70 in SSW 8.0 mph 15.0 mph 81 % 0.00 in 0 W/m2
00:39 51.8 °F 46.2 °F 29.70 in SSW 8.0 mph 15.0 mph 81 % 0.00 in 0 W/m2
00:44 51.6 °F 46.0 °F 29.70 in SSW 8.0 mph 14.0 mph 81 % 0.00 in 0 W/m2
00:49 51.6 °F 46.0 °F 29.70 in SSW 7.0 mph 12.0 mph 81 % 0.00 in 0 W/m2
00:54 51.4 °F 45.8 °F 29.69 in SSW 6.0 mph 12.0 mph 81 % 0.00 in 0 W/m2
00:59 51.4 °F 45.8 °F 29.69 in SSW 6.0 mph 11.0 mph 81 % 0.00 in 0 W/m2
01:04 51.3 °F 46.0 °F 29.69 in SSW 6.0 mph 10.0 mph 82 % 0.00 in 0 W/m2
01:09 51.3 °F 46.0 °F 29.70 in SSW 6.0 mph 10.0 mph 82 % 0.00 in 0 W/m2
01:14 51.1 °F 45.8 °F 29.69 in SSW 5.0 mph 10.0 mph 82 % 0.00 in 0 W/m2
01:19 51.1 °F 45.8 °F 29.69 in SSW 4.0 mph 9.0 mph 82 % 0.00 in 0 W/m2
01:24 50.9 °F 45.6 °F 29.69 in SSW 4.0 mph 8.0 mph 82 % 0.00 in 0 W/m2
01:29 50.7 °F 45.4 °F 29.70 in SSW 5.0 mph 9.0 mph 82 % 0.00 in 0 W/m2
01:34 50.5 °F 45.2 °F 29.69 in SSW 4.0 mph 9.0 mph 82 % 0.00 in 0 W/m2
01:39 50.5 °F 45.6 °F 29.69 in South 4.0 mph 8.0 mph 83 % 0.00 in 0 W/m2
01:45 50.4 °F 45.4 °F 29.69 in South 3.0 mph 8.0 mph 83 % 0.00 in 0 W/m2
01:50 50.2 °F 45.2 °F 29.69 in South 3.0 mph 7.0 mph 83 % 0.00 in 0 W/m2
01:55 50.0 °F 45.0 °F 29.69 in South 4.0 mph 7.0 mph 83 % 0.00 in 0 W/m2
02:00 49.8 °F 45.2 °F 29.69 in South 4.0 mph 8.0 mph 84 % 0.00 in 0 W/m2
02:05 49.8 °F 45.2 °F 29.69 in South 5.0 mph 8.0 mph 84 % 0.00 in 0 W/m2
02:10 49.6 °F 45.0 °F 29.69 in South 5.0 mph 8.0 mph 84 % 0.00 in 0 W/m2
02:15 49.6 °F 45.0 °F 29.69 in South 4.0 mph 8.0 mph 84 % 0.00 in 0 W/m2
02:20 49.5 °F 44.8 °F 29.69 in South 4.0 mph 8.0 mph 84 % 0.00 in 0 W/m2
02:25 49.5 °F 45.1 °F 29.69 in South 4.0 mph 8.0 mph 85 % 0.00 in 0 W/m2
02:30 49.3 °F 45.0 °F 29.69 in South 4.0 mph 8.0 mph 85 % 0.00 in 0 W/m2
02:35 49.1 °F 44.8 °F 29.69 in South 4.0 mph 8.0 mph 85 % 0.00 in 0 W/m2
02:40 48.9 °F 44.6 °F 29.68 in South 5.0 mph 11.0 mph 85 % 0.00 in 0 W/m2
02:45 48.9 °F 44.6 °F 29.68 in South 5.0 mph 11.0 mph 85 % 0.00 in 0 W/m2
02:50 48.9 °F 44.6 °F 29.68 in South 4.0 mph 10.0 mph 85 % 0.00 in 0 W/m2
02:55 48.7 °F 44.4 °F 29.68 in South 4.0 mph 10.0 mph 85 % 0.00 in 0 W/m2
03:00 48.7 °F 44.7 °F 29.68 in South 4.0 mph 10.0 mph 86 % 0.00 in 0 W/m2
03:05 48.7 °F 44.7 °F 29.68 in South 5.0 mph 9.0 mph 86 % 0.00 in 0 W/m2
03:10 48.6 °F 44.6 °F 29.68 in South 4.0 mph 9.0 mph 86 % 0.00 in 0 W/m2
03:15 48.6 °F 44.6 °F 29.68 in South 3.0 mph 8.0 mph 86 % 0.00 in 0 W/m2
03:20 48.6 °F 44.6 °F 29.68 in South 3.0 mph 8.0 mph 86 % 0.00 in 0 W/m2
03:25 48.4 °F 44.4 °F 29.68 in South 3.0 mph 7.0 mph 86 % 0.00 in 0 W/m2
03:30 48.4 °F 44.4 °F 29.68 in South 3.0 mph 7.0 mph 86 % 0.00 in 0 W/m2
03:35 48.4 °F 44.4 °F 29.68 in South 4.0 mph 8.0 mph 86 % 0.00 in 0 W/m2
03:40 48.4 °F 44.4 °F 29.68 in SSE 3.0 mph 8.0 mph 86 % 0.00 in 0 W/m2
03:45 48.2 °F 44.2 °F 29.68 in SSE 2.0 mph 5.0 mph 86 % 0.00 in 0 W/m2
03:50 48.0 °F 44.0 °F 29.68 in South 2.0 mph 5.0 mph 86 % 0.00 in 0 W/m2
03:55 48.0 °F 44.3 °F 29.68 in South 3.0 mph 7.0 mph 87 % 0.00 in 0 W/m2
04:00 48.0 °F 44.3 °F 29.68 in South 4.0 mph 10.0 mph 87 % 0.00 in 0 W/m2
04:05 48.0 °F 44.3 °F 29.68 in South 3.0 mph 10.0 mph 87 % 0.00 in 0 W/m2
04:10 47.8 °F 44.2 °F 29.67 in SSW 2.0 mph 6.0 mph 87 % 0.00 in 0 W/m2
04:15 47.8 °F 44.2 °F 29.67 in SSW 2.0 mph 10.0 mph 87 % 0.00 in 0 W/m2
04:20 47.8 °F 44.2 °F 29.67 in SW 2.0 mph 10.0 mph 87 % 0.00 in 0 W/m2
04:25 47.8 °F 44.2 °F 29.67 in SW 1.0 mph 6.0 mph 87 % 0.00 in 0 W/m2
04:26 47.7 °F 44.0 °F 29.67 in SW 1.0 mph 4.0 mph 87 % 0.00 in 0 W/m2
04:31 47.7 °F 44.0 °F 29.67 in SW 1.0 mph 6.0 mph 87 % 0.00 in 0 W/m2
04:36 47.5 °F 43.8 °F 29.67 in SSW 1.0 mph 7.0 mph 87 % 0.00 in 0 W/m2
04:41 47.1 °F 43.4 °F 29.67 in South 1.0 mph 7.0 mph 87 % 0.00 in 0 W/m2
04:43 47.1 °F 43.4 °F 29.67 in Calm   4.0 mph 87 % 0.00 in 0 W/m2
04:48 46.9 °F 43.3 °F 29.67 in Calm   2.0 mph 87 % 0.00 in 0 W/m2
04:53 46.8 °F 43.4 °F 29.67 in Calm   2.0 mph 88 % 0.00 in 0 W/m2
04:58 46.8 °F 43.4 °F 29.67 in Calm   4.0 mph 88 % 0.00 in 0 W/m2
05:03 46.6 °F 43.2 °F 29.67 in Calm   4.0 mph 88 % 0.00 in 0 W/m2
05:08 46.4 °F 43.0 °F 29.67 in Calm   1.0 mph 88 % 0.00 in 0 W/m2
05:13 46.2 °F 43.2 °F 29.67 in Calm   2.0 mph 89 % 0.00 in 0 W/m2
05:18 46.0 °F 43.0 °F 29.67 in Calm   4.0 mph 89 % 0.00 in 0 W/m2
05:23 46.0 °F 43.0 °F 29.67 in SSE 1.0 mph 5.0 mph 89 % 0.00 in 0 W/m2
05:28 46.0 °F 43.3 °F 29.67 in Calm   5.0 mph 90 % 0.00 in 0 W/m2
05:33 46.0 °F 43.3 °F 29.67 in SSE 1.0 mph 5.0 mph 90 % 0.00 in 0 W/m2
05:38 46.0 °F 43.3 °F 29.67 in SSE 2.0 mph 5.0 mph 90 % 0.00 in 0 W/m2
05:43 46.0 °F 43.3 °F 29.67 in SSE 1.0 mph 5.0 mph 90 % 0.00 in 0 W/m2
05:48 46.0 °F 43.3 °F 29.67 in SSE 1.0 mph 5.0 mph 90 % 0.00 in 0 W/m2
05:53 45.9 °F 43.1 °F 29.67 in Calm   1.0 mph 90 % 0.00 in 0 W/m2
05:58 45.9 °F 43.1 °F 29.67 in SE 1.0 mph 6.0 mph 90 % 0.00 in 0 W/m2
06:03 45.9 °F 43.1 °F 29.67 in SE 3.0 mph 6.0 mph 90 % 0.00 in 0 W/m2
06:08 45.9 °F 43.4 °F 29.67 in SE 4.0 mph 6.0 mph 91 % 0.00 in 0 W/m2
06:13 45.9 °F 43.4 °F 29.67 in SE 4.0 mph 6.0 mph 91 % 0.00 in 0 W/m2
06:18 45.9 °F 43.1 °F 29.67 in SE 3.0 mph 6.0 mph 90 % 0.00 in 0 W/m2
06:24 45.9 °F 43.1 °F 29.67 in SE 2.0 mph 6.0 mph 90 % 0.00 in 0 W/m2
06:29 45.7 °F 42.9 °F 29.67 in SE 2.0 mph 6.0 mph 90 % 0.00 in 0 W/m2
06:34 45.7 °F 42.9 °F 29.67 in SE 3.0 mph 6.0 mph 90 % 0.00 in 0 W/m2
06:39 45.5 °F 43.0 °F 29.67 in SE 4.0 mph 6.0 mph 91 % 0.00 in 0 W/m2
06:44 45.5 °F 43.0 °F 29.67 in SE 4.0 mph 6.0 mph 91 % 0.00 in 5 W/m2
06:49 45.5 °F 43.0 °F 29.67 in SE 3.0 mph 6.0 mph 91 % 0.00 in 0 W/m2
06:54 45.5 °F 43.0 °F 29.67 in ESE 2.0 mph 5.0 mph 91 % 0.00 in 0 W/m2
06:59 45.5 °F 43.0 °F 29.67 in ESE 3.0 mph 5.0 mph 91 % 0.00 in 7 W/m2
07:04 45.5 °F 43.0 °F 29.67 in ESE 2.0 mph 5.0 mph 91 % 0.00 in 11 W/m2
07:09 45.5 °F 43.0 °F 29.68 in ESE 1.0 mph 4.0 mph 91 % 0.00 in 18 W/m2
07:14 45.5 °F 43.0 °F 29.68 in ESE 2.0 mph 6.0 mph 91 % 0.00 in 19 W/m2
07:19 45.7 °F 43.5 °F 29.68 in ESE 2.0 mph 6.0 mph 92 % 0.00 in 23 W/m2
07:24 45.7 °F 43.5 °F 29.67 in ESE 2.0 mph 5.0 mph 92 % 0.00 in 18 W/m2
07:29 45.7 °F 43.5 °F 29.67 in ESE 1.0 mph 6.0 mph 92 % 0.00 in 16 W/m2
07:34 45.7 °F 43.2 °F 29.68 in SE 1.0 mph 6.0 mph 91 % 0.00 in 18 W/m2
07:39 45.9 °F 43.4 °F 29.68 in SE 1.0 mph 5.0 mph 91 % 0.00 in 33 W/m2
07:44 45.9 °F 43.7 °F 29.67 in SE 1.0 mph 5.0 mph 92 % 0.00 in 30 W/m2
07:49 45.9 °F 43.7 °F 29.67 in Calm   1.0 mph 92 % 0.00 in 67 W/m2
07:54 46.0 °F 43.8 °F 29.67 in Calm   2.0 mph 92 % 0.00 in 86 W/m2
07:55 46.0 °F 43.8 °F 29.67 in Calm   2.0 mph 92 % 0.01 in 76 W/m2
08:00 46.2 °F 44.0 °F 29.68 in Calm   2.0 mph 92 % 0.01 in 76 W/m2
08:05 46.6 °F 44.4 °F 29.68 in Calm   1.0 mph 92 % 0.01 in 33 W/m2
08:10 46.6 °F 44.4 °F 29.68 in Calm   1.0 mph 92 % 0.01 in 32 W/m2
08:16 46.6 °F 44.4 °F 29.68 in Calm   4.0 mph 92 % 0.01 in 47 W/m2
08:21 46.6 °F 44.4 °F 29.68 in Calm   4.0 mph 92 % 0.01 in 46 W/m2
08:26 46.6 °F 44.4 °F 29.68 in Calm   2.0 mph 92 % 0.01 in 56 W/m2
08:31 46.8 °F 44.8 °F 29.68 in SE 1.0 mph 4.0 mph 93 % 0.01 in 83 W/m2
08:36 46.8 °F 44.8 °F 29.68 in ESE 1.0 mph 4.0 mph 93 % 0.01 in 39 W/m2
08:41 46.8 °F 44.6 °F 29.68 in East 1.0 mph 5.0 mph 92 % 0.01 in 56 W/m2
08:46 46.9 °F 45.0 °F 29.68 in East 2.0 mph 5.0 mph 93 % 0.01 in 97 W/m2
08:51 46.9 °F 45.0 °F 29.68 in ESE 2.0 mph 6.0 mph 93 % 0.01 in 134 W/m2
08:56 47.1 °F 45.2 °F 29.68 in SE 2.0 mph 6.0 mph 93 % 0.00 in 116 W/m2
09:01 47.3 °F 45.4 °F 29.68 in SE 2.0 mph 5.0 mph 93 % 0.00 in 93 W/m2
09:06 47.5 °F 45.6 °F 29.69 in ESE 2.0 mph 5.0 mph 93 % 0.00 in 67 W/m2
09:11 47.5 °F 45.6 °F 29.68 in ESE 2.0 mph 5.0 mph 93 % 0.00 in 95 W/m2
09:16 47.5 °F 45.6 °F 29.69 in ESE 2.0 mph 5.0 mph 93 % 0.00 in 72 W/m2
09:21 47.5 °F 45.6 °F 29.69 in ESE 3.0 mph 6.0 mph 93 % 0.00 in 74 W/m2
09:26 47.5 °F 45.6 °F 29.69 in ESE 3.0 mph 6.0 mph 93 % 0.00 in 84 W/m2
09:28 47.5 °F 45.6 °F 29.69 in ESE 2.0 mph 6.0 mph 93 % 0.00 in 65 W/m2
09:33 47.5 °F 45.6 °F 29.69 in SE 2.0 mph 5.0 mph 93 % 0.00 in 44 W/m2
09:38 47.3 °F 45.4 °F 29.69 in SE 2.0 mph 5.0 mph 93 % 0.00 in 51 W/m2
09:43 47.5 °F 45.6 °F 29.69 in SE 2.0 mph 6.0 mph 93 % 0.00 in 69 W/m2
09:48 47.5 °F 45.6 °F 29.69 in SE 2.0 mph 6.0 mph 93 % 0.00 in 146 W/m2
09:53 47.7 °F 46.0 °F 29.69 in SSE 1.0 mph 5.0 mph 94 % 0.00 in 172 W/m2
09:58 47.8 °F 46.2 °F 29.69 in SSE 1.0 mph 4.0 mph 94 % 0.00 in 181 W/m2
10:03 48.0 °F 46.4 °F 29.69 in SSE 1.0 mph 4.0 mph 94 % 0.00 in 125 W/m2
10:08 48.2 °F 46.6 °F 29.69 in SSE 1.0 mph 5.0 mph 94 % 0.00 in 86 W/m2
10:13 48.2 °F 46.3 °F 29.69 in South 1.0 mph 5.0 mph 93 % 0.00 in 69 W/m2
10:18 48.2 °F 46.3 °F 29.69 in SW 2.0 mph 8.0 mph 93 % 0.00 in 70 W/m2
10:23 48.4 °F 46.4 °F 29.69 in SW 3.0 mph 8.0 mph 93 % 0.00 in 111 W/m2
10:28 48.4 °F 46.4 °F 29.70 in SSW 4.0 mph 10.0 mph 93 % 0.00 in 97 W/m2
10:33 48.4 °F 46.2 °F 29.70 in SSW 6.0 mph 10.0 mph 92 % 0.00 in 60 W/m2
10:38 48.4 °F 46.2 °F 29.70 in SW 6.0 mph 10.0 mph 92 % 0.00 in 67 W/m2
10:43 48.4 °F 46.2 °F 29.70 in SW 5.0 mph 10.0 mph 92 % 0.00 in 120 W/m2
10:48 48.4 °F 46.2 °F 29.70 in SW 5.0 mph 10.0 mph 92 % 0.00 in 142 W/m2
10:53 48.6 °F 46.3 °F 29.70 in SSW 5.0 mph 10.0 mph 92 % 0.00 in 171 W/m2
10:58 48.7 °F 46.8 °F 29.70 in SW 3.0 mph 7.0 mph 93 % 0.00 in 171 W/m2
11:03 48.7 °F 46.5 °F 29.70 in SW 3.0 mph 6.0 mph 92 % 0.00 in 190 W/m2
11:08 48.9 °F 46.7 °F 29.70 in SW 3.0 mph 6.0 mph 92 % 0.00 in 220 W/m2
11:13 49.1 °F 46.9 °F 29.70 in SW 3.0 mph 6.0 mph 92 % 0.00 in 244 W/m2
11:18 49.5 °F 47.2 °F 29.70 in SW 1.0 mph 5.0 mph 92 % 0.00 in 315 W/m2
11:23 49.6 °F 47.1 °F 29.70 in SW 2.0 mph 6.0 mph 91 % 0.00 in 322 W/m2
11:28 50.0 °F 47.5 °F 29.70 in SW 3.0 mph 7.0 mph 91 % 0.00 in 438 W/m2
11:33 50.5 °F 48.0 °F 29.70 in SSW 3.0 mph 7.0 mph 91 % 0.00 in 473 W/m2
11:38 51.3 °F 48.7 °F 29.70 in SSW 2.0 mph 6.0 mph 91 % 0.00 in 657 W/m2
11:43 51.4 °F 48.3 °F 29.70 in SW 2.0 mph 6.0 mph 89 % 0.00 in 686 W/m2
11:48 52.2 °F 49.0 °F 29.70 in SSW 2.0 mph 5.0 mph 89 % 0.00 in 703 W/m2
11:53 52.7 °F 48.9 °F 29.71 in South 1.0 mph 5.0 mph 87 % 0.00 in 327 W/m2
11:58 53.1 °F 49.0 °F 29.70 in SSW 1.0 mph 6.0 mph 86 % 0.00 in 244 W/m2
12:04 53.2 °F 48.5 °F 29.71 in SW 1.0 mph 6.0 mph 84 % 0.00 in 313 W/m2
12:08 53.2 °F 48.5 °F 29.71 in SW 2.0 mph 6.0 mph 84 % 0.00 in 406 W/m2
12:14 53.4 °F 49.0 °F 29.71 in SW 1.0 mph 5.0 mph 85 % 0.00 in 299 W/m2
12:19 54.0 °F 48.9 °F 29.71 in WNW 3.0 mph 8.0 mph 83 % 0.00 in 840 W/m2
12:24 54.7 °F 49.0 °F 29.71 in WNW 4.0 mph 8.0 mph 81 % 0.00 in 338 W/m2
12:29 55.2 °F 48.8 °F 29.70 in WNW 4.0 mph 9.0 mph 79 % 0.00 in 360 W/m2
12:34 55.4 °F 48.3 °F 29.71 in NW 5.0 mph 13.0 mph 77 % 0.00 in 227 W/m2
12:39 55.6 °F 47.1 °F 29.71 in NW 7.0 mph 13.0 mph 73 % 0.00 in 318 W/m2
12:44 55.9 °F 47.8 °F 29.71 in WNW 7.0 mph 13.0 mph 74 % 0.00 in 717 W/m2
12:49 56.5 °F 47.9 °F 29.70 in WNW 7.0 mph 15.0 mph 73 % 0.00 in 923 W/m2
12:54 56.7 °F 47.4 °F 29.71 in West 9.0 mph 16.0 mph 71 % 0.00 in 183 W/m2
12:59 56.1 °F 47.2 °F 29.71 in West 10.0 mph 16.0 mph 72 % 0.00 in 229 W/m2
13:04 55.9 °F 47.8 °F 29.71 in West 10.0 mph 16.0 mph 74 % 0.00 in 243 W/m2
13:09 56.1 °F 47.9 °F 29.71 in WNW 9.0 mph 15.0 mph 74 % 0.00 in 882 W/m2
13:14 56.8 °F 47.9 °F 29.71 in WNW 9.0 mph 16.0 mph 72 % 0.00 in 907 W/m2
13:19 57.4 °F 48.8 °F 29.71 in West 10.0 mph 16.0 mph 73 % 0.00 in 461 W/m2
13:24 57.2 °F 47.9 °F 29.72 in West 10.0 mph 19.0 mph 71 % 0.00 in 336 W/m2
13:29 56.8 °F 47.5 °F 29.72 in West 11.0 mph 19.0 mph 71 % 0.00 in 316 W/m2
13:35 56.7 °F 48.1 °F 29.72 in West 9.0 mph 16.0 mph 73 % 0.00 in 364 W/m2
13:39 57.0 °F 48.4 °F 29.72 in West 8.0 mph 15.0 mph 73 % 0.00 in 895 W/m2
13:45 57.6 °F 48.2 °F 29.72 in West 10.0 mph 19.0 mph 71 % 0.00 in 912 W/m2
13:50 58.1 °F 47.6 °F 29.72 in West 12.0 mph 19.0 mph 68 % 0.00 in 348 W/m2
13:55 58.1 °F 48.0 °F 29.72 in WNW 11.0 mph 19.0 mph 69 % 0.00 in 432 W/m2
14:00 58.3 °F 47.8 °F 29.73 in WNW 10.0 mph 18.0 mph 68 % 0.00 in 432 W/m2
14:05 58.3 °F 47.4 °F 29.73 in West 10.0 mph 21.0 mph 67 % 0.00 in 956 W/m2
14:10 58.5 °F 47.5 °F 29.73 in West 10.0 mph 21.0 mph 67 % 0.00 in 612 W/m2
14:15 58.6 °F 47.7 °F 29.73 in West 10.0 mph 19.0 mph 67 % 0.00 in 795 W/m2
14:20 58.8 °F 47.9 °F 29.73 in West 11.0 mph 20.0 mph 67 % 0.00 in 306 W/m2
14:25 58.8 °F 47.9 °F 29.73 in WNW 11.0 mph 20.0 mph 67 % 0.00 in 348 W/m2
14:30 58.5 °F 47.1 °F 29.73 in West 10.0 mph 16.0 mph 66 % 0.00 in 292 W/m2
14:37 58.8 °F 47.9 °F 29.73 in West 10.0 mph 12.0 mph 67 % 0.00 in 803 W/m2
14:42 59.2 °F 48.6 °F 29.73 in WSW 8.0 mph 14.0 mph 68 % 0.00 in 821 W/m2
14:47 59.2 °F 47.8 °F 29.73 in WSW 8.0 mph 14.0 mph 66 % 0.00 in 707 W/m2
14:52 58.8 °F 47.9 °F 29.73 in West 10.0 mph 16.0 mph 67 % 0.00 in 710 W/m2
14:57 58.6 °F 48.1 °F 29.73 in WSW 10.0 mph 16.0 mph 68 % 0.00 in 264 W/m2
15:02 58.6 °F 48.5 °F 29.73 in West 9.0 mph 14.0 mph 69 % 0.00 in 686 W/m2
15:07 59.2 °F 48.6 °F 29.74 in West 9.0 mph 16.0 mph 68 % 0.00 in 698 W/m2
15:12 59.5 °F 49.0 °F 29.74 in West 10.0 mph 18.0 mph 68 % 0.00 in 766 W/m2
15:17 59.5 °F 48.2 °F 29.74 in West 11.0 mph 20.0 mph 66 % 0.00 in 185 W/m2
15:23 59.2 °F 48.2 °F 29.74 in West 11.0 mph 22.0 mph 67 % 0.00 in 670 W/m2
15:28 59.2 °F 48.2 °F 29.74 in West 10.0 mph 22.0 mph 67 % 0.00 in 686 W/m2
15:33 58.6 °F 47.7 °F 29.74 in West 11.0 mph 21.0 mph 67 % 0.00 in 258 W/m2
15:38 58.1 °F 47.6 °F 29.75 in WNW 13.0 mph 21.0 mph 68 % 0.00 in 439 W/m2
15:43 57.7 °F 47.6 °F 29.75 in WNW 12.0 mph 21.0 mph 69 % 0.00 in 269 W/m2
15:48 57.4 °F 47.7 °F 29.75 in WNW 11.0 mph 19.0 mph 70 % 0.00 in 234 W/m2
15:53 56.8 °F 47.9 °F 29.75 in WNW 10.0 mph 18.0 mph 72 % 0.00 in 199 W/m2
15:58 56.5 °F 47.2 °F 29.75 in WNW 10.0 mph 19.0 mph 71 % 0.00 in 195 W/m2
16:03 56.1 °F 46.8 °F 29.75 in West 11.0 mph 19.0 mph 71 % 0.00 in 186 W/m2
16:08 55.8 °F 46.9 °F 29.75 in West 10.0 mph 18.0 mph 72 % 0.00 in 158 W/m2
16:13 55.8 °F 47.2 °F 29.76 in West 8.0 mph 14.0 mph 73 % 0.00 in 160 W/m2
16:18 55.4 °F 46.9 °F 29.76 in West 9.0 mph 20.0 mph 73 % 0.00 in 243 W/m2
16:23 55.6 °F 47.4 °F 29.76 in West 10.0 mph 20.0 mph 74 % 0.00 in 311 W/m2
16:28 56.1 °F 47.6 °F 29.76 in WNW 9.0 mph 16.0 mph 73 % 0.00 in 555 W/m2
16:33 56.8 °F 47.9 °F 29.76 in WNW 10.0 mph 16.0 mph 72 % 0.00 in 519 W/m2
16:38 57.4 °F 48.1 °F 29.76 in WNW 9.0 mph 16.0 mph 71 % 0.00 in 513 W/m2
16:43 57.7 °F 48.0 °F 29.76 in WNW 8.0 mph 16.0 mph 70 % 0.00 in 380 W/m2
16:48 57.6 °F 47.1 °F 29.76 in WNW 9.0 mph 18.0 mph 68 % 0.00 in 427 W/m2
16:53 57.6 °F 47.5 °F 29.77 in WNW 9.0 mph 18.0 mph 69 % 0.00 in 450 W/m2
16:58 57.6 °F 47.5 °F 29.77 in WNW 9.0 mph 16.0 mph 69 % 0.00 in 411 W/m2
17:03 57.6 °F 47.5 °F 29.77 in WNW 8.0 mph 15.0 mph 69 % 0.00 in 171 W/m2
17:08 57.6 °F 47.5 °F 29.77 in WNW 5.0 mph 10.0 mph 69 % 0.00 in 251 W/m2
17:13 57.7 °F 47.6 °F 29.77 in WNW 5.0 mph 12.0 mph 69 % 0.00 in 352 W/m2
17:18 57.6 °F 46.3 °F 29.77 in WNW 10.0 mph 20.0 mph 66 % 0.00 in 227 W/m2
17:23 57.4 °F 46.5 °F 29.77 in WNW 12.0 mph 20.0 mph 67 % 0.00 in 230 W/m2
17:28 57.0 °F 46.6 °F 29.78 in WNW 11.0 mph 19.0 mph 68 % 0.00 in 381 W/m2
17:33 56.8 °F 46.4 °F 29.78 in WNW 12.0 mph 22.0 mph 68 % 0.00 in 123 W/m2
17:38 56.1 °F 45.7 °F 29.79 in WNW 12.0 mph 22.0 mph 68 % 0.00 in 120 W/m2
17:43 55.8 °F 46.1 °F 29.79 in WNW 10.0 mph 16.0 mph 70 % 0.00 in 125 W/m2
17:48 55.4 °F 46.2 °F 29.79 in WNW 8.0 mph 14.0 mph 71 % 0.00 in 100 W/m2
17:53 55.0 °F 45.4 °F 29.79 in WNW 9.0 mph 14.0 mph 70 % 0.00 in 76 W/m2
17:58 54.9 °F 45.3 °F 29.80 in WNW 9.0 mph 15.0 mph 70 % 0.00 in 67 W/m2
18:03 54.7 °F 45.5 °F 29.80 in WNW 8.0 mph 15.0 mph 71 % 0.00 in 113 W/m2
18:08 54.7 °F 45.5 °F 29.80 in WNW 9.0 mph 16.0 mph 71 % 0.00 in 120 W/m2
18:13 54.9 °F 45.6 °F 29.80 in WNW 9.0 mph 16.0 mph 71 % 0.00 in 120 W/m2
18:18 55.0 °F 45.8 °F 29.81 in WNW 8.0 mph 16.0 mph 71 % 0.00 in 86 W/m2
18:23 55.0 °F 46.2 °F 29.81 in WNW 7.0 mph 15.0 mph 72 % 0.00 in 74 W/m2
18:29 55.0 °F 46.2 °F 29.81 in WNW 5.0 mph 12.0 mph 72 % 0.00 in 63 W/m2
18:34 55.0 °F 46.2 °F 29.81 in WNW 4.0 mph 9.0 mph 72 % 0.00 in 65 W/m2
18:39 54.9 °F 46.0 °F 29.81 in WNW 5.0 mph 11.0 mph 72 % 0.00 in 60 W/m2
18:44 54.9 °F 45.3 °F 29.81 in WNW 6.0 mph 13.0 mph 70 % 0.00 in 62 W/m2
18:49 54.9 °F 45.3 °F 29.81 in WNW 7.0 mph 13.0 mph 70 % 0.00 in 100 W/m2
18:54 54.9 °F 45.6 °F 29.82 in WNW 7.0 mph 12.0 mph 71 % 0.00 in 91 W/m2
18:59 54.9 °F 45.6 °F 29.82 in WNW 6.0 mph 12.0 mph 71 % 0.00 in 81 W/m2
19:04 54.9 °F 45.6 °F 29.82 in WNW 4.0 mph 9.0 mph 71 % 0.00 in 69 W/m2
19:09 55.0 °F 45.8 °F 29.82 in West 4.0 mph 9.0 mph 71 % 0.00 in 46 W/m2
19:14 54.9 °F 45.6 °F 29.83 in West 4.0 mph 9.0 mph 71 % 0.00 in 33 W/m2
19:19 54.9 °F 45.6 °F 29.83 in WNW 5.0 mph 11.0 mph 71 % 0.00 in 23 W/m2
19:24 54.7 °F 45.8 °F 29.83 in WNW 6.0 mph 11.0 mph 72 % 0.00 in 16 W/m2
19:29 54.3 °F 45.5 °F 29.83 in WNW 6.0 mph 10.0 mph 72 % 0.00 in 12 W/m2
19:34 54.0 °F 45.1 °F 29.83 in West 5.0 mph 10.0 mph 72 % 0.00 in 9 W/m2
19:39 53.4 °F 45.0 °F 29.83 in WNW 5.0 mph 9.0 mph 73 % 0.00 in 7 W/m2
19:44 53.1 °F 45.0 °F 29.84 in WNW 5.0 mph 10.0 mph 74 % 0.00 in 0 W/m2
19:49 52.9 °F 45.2 °F 29.84 in WNW 6.0 mph 11.0 mph 75 % 0.00 in 0 W/m2
19:54 52.3 °F 45.0 °F 29.84 in WNW 6.0 mph 11.0 mph 76 % 0.00 in 0 W/m2
19:59 52.2 °F 45.2 °F 29.84 in WNW 5.0 mph 10.0 mph 77 % 0.00 in 0 W/m2
20:04 52.0 °F 45.0 °F 29.85 in WNW 7.0 mph 15.0 mph 77 % 0.00 in 0 W/m2
20:05 51.8 °F 44.8 °F 29.85 in WNW 8.0 mph 18.0 mph 77 % 0.00 in 0 W/m2
20:10 51.6 °F 45.0 °F 29.85 in WNW 10.0 mph 18.0 mph 78 % 0.00 in 0 W/m2
20:15 51.3 °F 45.0 °F 29.85 in WNW 10.0 mph 18.0 mph 79 % 0.00 in 0 W/m2
20:20 51.1 °F 44.8 °F 29.85 in WNW 9.0 mph 18.0 mph 79 % 0.00 in 0 W/m2
20:25 50.7 °F 44.8 °F 29.86 in WNW 8.0 mph 14.0 mph 80 % 0.00 in 0 W/m2
20:30 50.5 °F 44.6 °F 29.86 in WNW 8.0 mph 14.0 mph 80 % 0.00 in 0 W/m2
20:35 50.4 °F 44.4 °F 29.86 in WNW 8.0 mph 12.0 mph 80 % 0.00 in 0 W/m2
20:40 50.2 °F 44.6 °F 29.87 in WNW 7.0 mph 12.0 mph 81 % 0.00 in 0 W/m2
20:45 49.8 °F 44.2 °F 29.87 in WNW 7.0 mph 13.0 mph 81 % 0.00 in 0 W/m2
20:50 49.6 °F 44.4 °F 29.87 in WNW 8.0 mph 13.0 mph 82 % 0.00 in 0 W/m2
20:56 49.5 °F 44.2 °F 29.88 in WNW 7.0 mph 13.0 mph 82 % 0.00 in 0 W/m2
21:00 49.5 °F 44.2 °F 29.88 in WNW 7.0 mph 11.0 mph 82 % 0.00 in 0 W/m2
21:06 49.3 °F 44.3 °F 29.88 in WNW 7.0 mph 11.0 mph 83 % 0.00 in 0 W/m2
21:11 49.1 °F 44.2 °F 29.88 in WNW 7.0 mph 11.0 mph 83 % 0.00 in 0 W/m2
21:16 48.9 °F 44.0 °F 29.89 in WNW 6.0 mph 11.0 mph 83 % 0.00 in 0 W/m2
21:21 48.7 °F 44.1 °F 29.89 in WNW 7.0 mph 15.0 mph 84 % 0.00 in 0 W/m2
21:26 48.6 °F 43.6 °F 29.89 in WNW 8.0 mph 15.0 mph 83 % 0.00 in 0 W/m2
21:31 48.4 °F 43.5 °F 29.89 in WNW 7.0 mph 12.0 mph 83 % 0.00 in 0 W/m2
21:36 48.4 °F 43.5 °F 29.89 in WNW 7.0 mph 18.0 mph 83 % 0.00 in 0 W/m2
21:41 48.2 °F 43.6 °F 29.90 in WNW 7.0 mph 18.0 mph 84 % 0.00 in 0 W/m2
21:42 48.2 °F 43.6 °F 29.90 in WNW 7.0 mph 18.0 mph 84 % 0.00 in 0 W/m2
21:47 48.0 °F 43.4 °F 29.90 in WNW 6.0 mph 11.0 mph 84 % 0.00 in 0 W/m2
21:53 48.0 °F 43.4 °F 29.90 in WNW 5.0 mph 9.0 mph 84 % 0.00 in 0 W/m2
21:58 47.8 °F 43.5 °F 29.90 in WNW 5.0 mph 10.0 mph 85 % 0.00 in 0 W/m2
22:03 47.8 °F 43.5 °F 29.90 in WNW 6.0 mph 11.0 mph 85 % 0.00 in 0 W/m2
22:08 47.8 °F 43.5 °F 29.90 in WNW 6.0 mph 13.0 mph 85 % 0.00 in 0 W/m2
22:13 47.7 °F 43.4 °F 29.90 in WNW 6.0 mph 13.0 mph 85 % 0.00 in 0 W/m2
22:18 47.7 °F 43.4 °F 29.91 in WNW 6.0 mph 12.0 mph 85 % 0.00 in 0 W/m2
22:23 47.7 °F 43.7 °F 29.91 in WNW 6.0 mph 12.0 mph 86 % 0.00 in 0 W/m2
22:28 47.7 °F 43.7 °F 29.91 in WNW 7.0 mph 14.0 mph 86 % 0.00 in 0 W/m2
22:33 47.7 °F 43.7 °F 29.91 in WNW 8.0 mph 14.0 mph 86 % 0.00 in 0 W/m2
22:38 47.7 °F 44.0 °F 29.91 in WNW 7.0 mph 12.0 mph 87 % 0.00 in 0 W/m2
22:43 47.8 °F 44.2 °F 29.92 in WNW 8.0 mph 12.0 mph 87 % 0.00 in 0 W/m2
22:48 47.8 °F 44.2 °F 29.92 in WNW 8.0 mph 13.0 mph 87 % 0.00 in 0 W/m2
22:53 47.8 °F 44.2 °F 29.92 in WNW 7.0 mph 13.0 mph 87 % 0.00 in 0 W/m2
22:58 48.0 °F 44.0 °F 29.92 in WNW 8.0 mph 12.0 mph 86 % 0.00 in 0 W/m2
23:03 47.8 °F 43.9 °F 29.92 in WNW 8.0 mph 11.0 mph 86 % 0.00 in 0 W/m2
23:08 47.8 °F 43.9 °F 29.92 in WNW 7.0 mph 11.0 mph 86 % 0.00 in 0 W/m2
23:13 47.8 °F 44.2 °F 29.92 in WNW 7.0 mph 13.0 mph 87 % 0.00 in 0 W/m2
23:18 47.8 °F 44.2 °F 29.92 in WNW 7.0 mph 13.0 mph 87 % 0.00 in 0 W/m2
23:23 47.7 °F 44.0 °F 29.93 in WNW 6.0 mph 11.0 mph 87 % 0.00 in 0 W/m2
23:28 47.7 °F 44.0 °F 29.93 in WNW 6.0 mph 10.0 mph 87 % 0.00 in 0 W/m2
23:33 47.7 °F 44.0 °F 29.93 in WNW 6.0 mph 11.0 mph 87 % 0.00 in 0 W/m2
23:38 47.5 °F 44.1 °F 29.93 in WNW 6.0 mph 11.0 mph 88 % 0.00 in 0 W/m2
23:43 47.5 °F 44.1 °F 29.93 in WNW 6.0 mph 13.0 mph 88 % 0.00 in 0 W/m2
23:48 47.5 °F 44.1 °F 29.94 in WNW 7.0 mph 13.0 mph 88 % 0.00 in 0 W/m2
23:53 47.5 °F 44.1 °F 29.94 in WNW 7.0 mph 12.0 mph 88 % 0.00 in 0 W/m2
23:58 47.3 °F 43.9 °F 29.94 in WNW 6.0 mph 11.0 mph 88 % 0.00 in 0 W/m2
Delerius-Weather
Compliments of Weather Underground - 2.25 mb

Data updates at regular intervals.